Time;durP1;ratioP1;P1;durP2;ratioP2;P2;SDS_P1;SDS_P2;PMS_P1;PMS_P2;Temp;Humidity;BMP_temperature;BMP_pressure;BME280_temperature;BME280_humidity;BME280_pressure;Samples;Min_cycle;Max_cycle;Signal;HPM_P1;HPM_P2
2022/02/03 00:04:37;;;;;;;27.05;16.10;;;;;;;3.24;66.29;99543.17;1665001;86;21121;-70
2022/02/03 00:07:05;;;;;;;26.10;16.25;;;;;;;3.25;66.16;99544.77;1673645;83;21327;-68
2022/02/03 00:09:59;;;;;;;24.12;15.25;;;;;;;3.25;66.11;99546.08;1666670;84;21560;-69
2022/02/03 00:25:10;;;;;;;25.97;15.88;;;;;;;3.21;65.96;99550.75;1714736;82;20999;-69
2022/02/03 00:27:57;;;;;;;29.32;16.35;;;;;;;3.22;65.94;99545.75;1714908;82;21157;-68
2022/02/03 00:30:32;;;;;;;27.85;16.35;;;;;;;3.21;65.90;99549.44;1714618;82;21513;-70
2022/02/03 00:33:11;;;;;;;28.42;16.85;;;;;;;3.19;65.94;99543.58;1714626;82;21544;-69
2022/02/03 00:35:35;;;;;;;28.60;17.10;;;;;;;3.15;65.94;99542.45;1713705;82;21010;-69
2022/02/03 00:48:45;;;;;;;25.68;16.00;;;;;;;3.21;66.07;99534.92;1714294;83;21031;-68
2022/02/03 00:51:10;;;;;;;27.97;16.40;;;;;;;3.23;66.05;99534.18;1717288;82;21038;-68
2022/02/03 00:53:37;;;;;;;27.30;16.20;;;;;;;3.19;66.00;99531.21;1717583;83;21514;-69
2022/02/03 00:56:14;;;;;;;28.42;16.10;;;;;;;3.17;65.99;99526.67;1717071;82;21055;-69
2022/02/03 00:59:02;;;;;;;24.92;15.98;;;;;;;3.15;66.01;99527.93;1717528;82;21022;-69
2022/02/03 01:01:38;;;;;;;23.60;15.23;;;;;;;3.16;66.01;99530.84;1718126;82;21503;-69
2022/02/03 01:04:11;;;;;;;26.05;16.23;;;;;;;3.16;66.01;99526.89;1718282;82;21020;-68
2022/02/03 01:06:48;;;;;;;24.95;15.93;;;;;;;3.16;66.00;99529.03;1716051;82;21573;-69
2022/02/03 01:09:10;;;;;;;25.62;16.30;;;;;;;3.17;66.00;99531.95;1711085;83;21038;-69
2022/02/03 01:11:41;;;;;;;27.25;16.45;;;;;;;3.20;65.98;99530.16;1717764;82;20951;-69
2022/02/03 01:14:12;;;;;;;26.05;15.98;;;;;;;3.23;65.93;99533.66;1717108;82;21502;-69
2022/02/03 01:19:23;;;;;;;24.50;15.40;;;;;;;3.23;65.86;99534.18;1717450;82;21986;-69
2022/02/03 01:45:58;;;;;;;24.45;14.68;;;;;;;2.94;66.27;99539.39;1717675;82;21113;-68
2022/02/03 01:53:43;;;;;;;27.10;16.65;;;;;;;2.79;66.68;99543.80;1717530;82;21003;-68
2022/02/03 01:56:19;;;;;;;26.25;16.62;;;;;;;2.75;66.83;99541.87;1717902;82;21011;-68
2022/02/03 01:58:56;;;;;;;26.60;17.37;;;;;;;2.74;66.94;99538.95;1717493;82;21182;-68
2022/02/03 02:01:27;;;;;;;26.87;16.50;;;;;;;2.74;67.04;99535.80;1707033;83;21028;-68
2022/02/03 02:04:13;;;;;;;27.02;17.35;;;;;;;2.78;67.12;99544.05;1702389;84;20976;-68
2022/02/03 02:07:06;;;;;;;26.57;17.40;;;;;;;2.82;67.14;99547.83;1717312;82;21046;-68
2022/02/03 02:09:53;;;;;;;25.08;16.52;;;;;;;2.88;67.14;99540.83;1717801;82;21011;-68
2022/02/03 02:12:49;;;;;;;28.57;17.65;;;;;;;2.94;67.12;99542.03;1715278;82;21530;-68
2022/02/03 02:37:57;;;;;;;25.48;16.93;;;;;;;3.03;66.89;99538.53;1717266;83;21054;-68
2022/02/03 02:43:33;;;;;;;26.70;16.32;;;;;;;3.09;67.13;99530.17;1717331;82;21046;-68
2022/02/03 02:46:44;;;;;;;23.22;15.20;;;;;;;3.07;67.22;99527.78;1717500;82;20976;-69
2022/02/03 02:49:27;;;;;;;26.60;17.05;;;;;;;3.03;67.46;99526.66;1717344;82;21067;-68
2022/02/03 02:52:06;;;;;;;26.87;17.42;;;;;;;2.99;67.62;99531.56;1717604;82;21529;-68
2022/02/03 02:54:45;;;;;;;23.27;15.40;;;;;;;3.01;67.75;99533.98;1716149;82;21068;-68
2022/02/03 03:03:35;;;;;;;22.75;14.90;;;;;;;3.05;68.07;99536.44;1702567;82;21028;-68
2022/02/03 03:33:49;;;;;;;27.70;18.57;;;;;;;3.30;68.37;99571.80;1702193;84;21075;-68
2022/02/03 03:36:11;;;;;;;28.17;18.77;;;;;;;3.30;68.35;99579.71;1698407;84;21662;-69
2022/02/03 03:38:35;;;;;;;29.15;18.92;;;;;;;3.31;68.37;99579.98;1701576;84;21043;-69
2022/02/03 03:41:03;;;;;;;30.25;19.27;;;;;;;3.32;68.39;99590.02;1702457;84;21070;-68
2022/02/03 03:43:42;;;;;;;29.87;19.23;;;;;;;3.35;68.51;99582.95;1702627;82;21435;-68
2022/02/03 03:46:13;;;;;;;29.42;19.23;;;;;;;3.37;68.53;99587.50;1702462;83;21123;-69
2022/02/03 03:49:02;;;;;;;31.05;19.45;;;;;;;3.39;68.57;99587.55;1702181;84;21111;-69
2022/02/03 03:51:34;;;;;;;31.02;19.45;;;;;;;3.41;68.55;99584.15;1692397;84;21087;-69
2022/02/03 03:54:05;;;;;;;29.50;18.70;;;;;;;3.44;68.51;99589.48;1674946;84;21055;-69
2022/02/03 03:56:45;;;;;;;30.32;19.45;;;;;;;3.47;68.54;99585.06;1702072;82;21000;-69
2022/02/03 03:59:41;;;;;;;29.57;18.85;;;;;;;3.49;68.55;99592.23;1700913;82;21205;-69
2022/02/03 04:34:30;;;;;;;29.37;19.32;;;;;;;3.44;68.38;99614.04;1717639;83;20996;-68
2022/02/03 04:37:30;;;;;;;28.90;18.85;;;;;;;3.45;68.42;99615.63;1713724;82;20963;-68
2022/02/03 04:40:38;;;;;;;27.62;18.48;;;;;;;3.45;68.42;99615.63;1713633;82;21172;-68
2022/02/03 05:04:02;;;;;;;35.55;21.37;;;;;;;3.36;68.55;99629.45;1719913;83;20427;-69
2022/02/03 05:07:28;;;;;;;38.30;21.55;;;;;;;3.31;68.47;99630.13;1715188;82;21046;-67
2022/02/03 05:13:38;;;;;;;34.20;20.80;;;;;;;3.21;68.64;99642.59;1702573;82;21127;-69
2022/02/03 05:45:40;;;;;;;36.15;20.65;;;;;;;2.99;69.11;99677.97;1717776;82;20944;-68
2022/02/03 06:08:49;;;;;;;29.30;19.55;;;;;;;2.92;69.67;99695.75;1702310;84;21480;-69
2022/02/03 06:14:02;;;;;;;30.05;18.98;;;;;;;2.98;69.84;99698.00;1702728;84;21597;-69
2022/02/03 06:22:21;;;;;;;28.10;18.55;;;;;;;3.05;69.86;99721.91;1717761;82;21015;-68
2022/02/03 06:29:03;;;;;;;27.65;18.17;;;;;;;3.19;69.85;99730.92;1633311;84;21069;-68
2022/02/03 06:31:37;;;;;;;27.30;18.50;;;;;;;3.25;69.85;99732.66;1702873;82;21026;-68
2022/02/03 06:34:04;;;;;;;31.12;18.55;;;;;;;3.30;69.84;99730.15;1702500;82;21111;-68
2022/02/03 06:36:33;;;;;;;23.98;17.75;;;;;;;3.34;69.79;99735.25;1702850;82;21030;-70
2022/02/03 06:38:59;;;;;;;29.15;17.82;;;;;;;3.33;69.75;99737.61;1702782;84;21118;-69
2022/02/03 06:41:26;;;;;;;25.55;17.60;;;;;;;3.36;69.77;99733.72;1703066;82;21117;-69
2022/02/03 06:43:53;;;;;;;26.23;17.65;;;;;;;3.40;69.81;99736.17;1711588;82;21556;-69
2022/02/03 06:46:19;;;;;;;25.70;17.32;;;;;;;3.48;69.80;99740.58;1717647;82;21436;-68
2022/02/03 06:48:54;;;;;;;26.73;17.48;;;;;;;3.55;69.75;99743.09;1716468;82;20988;-69
2022/02/03 06:51:22;;;;;;;26.60;17.25;;;;;;;3.63;69.70;99743.28;1715246;82;21550;-69
2022/02/03 06:53:50;;;;;;;25.62;17.07;;;;;;;3.68;69.62;99746.02;1713302;83;20972;-69
2022/02/03 06:56:35;;;;;;;29.48;17.52;;;;;;;3.72;69.58;99746.66;1701850;83;21569;-69
2022/02/03 06:58:57;;;;;;;26.62;16.73;;;;;;;3.80;69.51;99744.70;1684220;82;21477;-69
2022/02/03 07:01:29;;;;;;;26.50;16.90;;;;;;;3.82;69.37;99752.68;1717317;82;21055;-68
2022/02/03 07:03:56;;;;;;;23.00;16.60;;;;;;;3.86;69.36;99748.53;1708005;82;21235;-69
2022/02/03 07:06:17;;;;;;;24.85;16.93;;;;;;;3.93;69.28;99755.81;1712698;82;21389;-69
2022/02/03 07:08:46;;;;;;;25.05;16.87;;;;;;;3.99;69.18;99756.73;1717455;82;21063;-69
2022/02/03 07:11:17;;;;;;;24.18;16.40;;;;;;;4.03;69.10;99763.66;1717666;82;21051;-69
2022/02/03 07:13:42;;;;;;;25.20;17.02;;;;;;;4.07;69.02;99766.92;1717056;82;21441;-69
2022/02/03 07:16:09;;;;;;;27.48;18.20;;;;;;;4.12;68.95;99766.23;1717617;82;21544;-69
2022/02/03 07:18:39;;;;;;;23.42;16.65;;;;;;;4.15;68.90;99762.61;1717442;82;21617;-70
2022/02/03 07:21:06;;;;;;;23.62;16.40;;;;;;;4.21;68.82;99768.77;1717640;82;21034;-69
2022/02/03 07:23:34;;;;;;;25.85;16.30;;;;;;;4.26;68.73;99772.05;1717537;82;21027;-69
2022/02/03 07:26:01;;;;;;;24.05;16.77;;;;;;;4.31;68.71;99774.29;1717723;82;21085;-70
2022/02/03 07:28:27;;;;;;;25.52;16.67;;;;;;;4.36;68.62;99776.22;1717458;82;21568;-70
2022/02/03 07:30:55;;;;;;;24.82;17.17;;;;;;;4.39;68.51;99774.42;1717524;82;20947;-70
2022/02/03 07:33:22;;;;;;;26.12;17.82;;;;;;;4.42;68.43;99782.69;1714070;82;21054;-69
2022/02/03 07:35:48;;;;;;;22.87;16.20;;;;;;;4.45;68.34;99788.83;1717793;82;21031;-69
2022/02/03 07:38:16;;;;;;;23.70;16.17;;;;;;;4.50;68.29;99789.96;1717592;82;21557;-69
2022/02/03 07:40:43;;;;;;;23.60;16.55;;;;;;;4.52;68.21;99793.19;1690621;82;21237;-69
2022/02/03 07:43:10;;;;;;;23.70;16.65;;;;;;;4.55;68.17;99790.88;1716863;82;21411;-69
2022/02/03 07:45:37;;;;;;;22.05;14.75;;;;;;;4.58;68.12;99789.60;1717953;82;20979;-69
2022/02/03 07:48:04;;;;;;;21.12;15.08;;;;;;;4.61;68.05;99796.55;1717397;82;21059;-69
2022/02/03 07:50:31;;;;;;;22.62;15.55;;;;;;;4.64;68.02;99799.21;1717582;82;21007;-68
2022/02/03 07:52:58;;;;;;;22.93;16.48;;;;;;;4.68;67.98;99799.84;1710974;82;22142;-69
2022/02/03 07:55:24;;;;;;;22.10;15.68;;;;;;;4.77;67.86;99799.45;1702585;84;21969;-69
2022/02/03 07:57:53;;;;;;;22.30;16.32;;;;;;;4.81;67.82;99797.44;1702481;82;21531;-69
2022/02/03 08:00:23;;;;;;;22.45;15.65;;;;;;;4.86;67.68;99802.00;1702813;84;20996;-68
2022/02/03 08:02:50;;;;;;;21.55;15.70;;;;;;;4.88;67.61;99799.41;1702487;82;21019;-69
2022/02/03 08:05:18;;;;;;;23.02;14.95;;;;;;;4.88;67.44;99795.96;1702802;83;21503;-69
2022/02/03 08:08:03;;;;;;;20.52;15.00;;;;;;;4.90;67.38;99801.80;1702391;82;21027;-68
2022/02/03 08:12:58;;;;;;;21.97;15.58;;;;;;;4.83;67.09;99805.91;1702293;84;21574;-68
2022/02/03 08:15:26;;;;;;;21.65;15.48;;;;;;;4.81;66.93;99808.02;1702815;84;20996;-68
2022/02/03 08:17:59;;;;;;;20.80;15.03;;;;;;;4.75;66.90;99816.09;1702428;82;21564;-69
2022/02/03 08:20:23;;;;;;;19.17;14.30;;;;;;;4.73;66.84;99816.84;1701994;82;21060;-69
2022/02/03 08:22:59;;;;;;;19.42;13.50;;;;;;;4.71;66.95;99821.06;1702407;82;21103;-69
2022/02/03 08:25:26;;;;;;;19.60;14.30;;;;;;;4.75;66.96;99820.06;1701379;84;21091;-69
2022/02/03 08:30:46;;;;;;;18.27;12.82;;;;;;;4.81;66.89;99822.56;1639724;84;21956;-69
2022/02/03 08:33:05;;;;;;;17.12;12.18;;;;;;;4.79;66.77;99821.98;1699620;82;21083;-68
2022/02/03 08:35:42;;;;;;;18.20;13.30;;;;;;;4.73;66.78;99822.93;1702832;84;21554;-69
2022/02/03 08:43:14;;;;;;;16.42;10.78;;;;;;;4.68;67.02;99830.78;1702396;84;21543;-68
2022/02/03 08:45:41;;;;;;;13.05;9.43;;;;;;;4.65;67.02;99836.02;1702415;84;21111;-68
2022/02/03 08:48:08;;;;;;;11.10;8.70;;;;;;;4.61;67.12;99834.09;1702381;82;21024;-68
2022/02/03 08:50:36;;;;;;;11.40;8.63;;;;;;;4.49;67.33;99836.77;1702673;84;20977;-69
2022/02/03 08:53:14;;;;;;;12.10;8.50;;;;;;;4.39;67.64;99844.49;1718688;83;21067;-69
2022/02/03 09:28:16;;;;;;;11.35;9.48;;;;;;;4.14;68.87;99860.61;1720046;83;21088;-68
2022/02/03 09:29:17;;;;;;;13.98;10.53;;;;;;;3.69;71.48;99873.89;1719901;83;21500;-68
2022/02/03 09:34:41;;;;;;;13.30;10.40;;;;;;;3.68;71.62;99882.03;1720197;83;20976;-69
2022/02/03 09:37:30;;;;;;;11.83;9.05;;;;;;;3.73;71.55;99879.00;1715496;82;21291;-70
2022/02/03 09:41:47;;;;;;;9.35;7.17;;;;;;;3.78;70.54;99887.55;1720549;82;21024;-69
2022/02/03 09:57:37;;;;;;;8.98;7.20;;;;;;;3.79;68.84;99896.30;1702804;82;21069;-69
2022/02/03 10:03:49;;;;;;;9.10;7.28;;;;;;;3.81;68.53;99898.18;1671490;84;21577;-69
2022/02/03 10:06:23;;;;;;;10.55;7.83;;;;;;;3.69;68.52;99906.91;1634841;86;21082;-70
2022/02/03 10:08:53;;;;;;;9.98;7.92;;;;;;;3.68;68.69;99905.80;1680550;85;21149;-70
2022/02/03 10:11:22;;;;;;;10.82;8.33;;;;;;;3.71;68.82;99909.30;1666101;84;21472;-69
2022/02/03 10:13:58;;;;;;;10.70;8.63;;;;;;;3.73;68.90;99914.66;1665833;86;21146;-69
2022/02/03 10:16:28;;;;;;;11.45;7.80;;;;;;;3.80;68.99;99908.47;1666348;85;21161;-69
2022/02/03 10:19:13;;;;;;;11.00;8.40;;;;;;;3.86;68.98;99911.00;1666445;86;21555;-69
2022/02/03 10:21:40;;;;;;;11.03;8.83;;;;;;;3.90;68.88;99920.59;1665966;84;21076;-69
2022/02/03 10:24:08;;;;;;;11.83;8.63;;;;;;;3.87;68.92;99920.52;1666797;86;21076;-69
2022/02/03 10:26:45;;;;;;;11.40;9.43;;;;;;;3.89;68.82;99917.16;1666389;86;21028;-70
2022/02/03 10:29:18;;;;;;;11.20;9.05;;;;;;;3.86;68.45;99926.85;1666080;84;21195;-70
2022/02/03 10:31:45;;;;;;;10.70;8.78;;;;;;;3.80;67.98;99933.04;1666294;86;21065;-70
2022/02/03 10:34:16;;;;;;;10.98;8.75;;;;;;;3.73;67.67;99943.71;1666196;84;21190;-69
2022/02/03 10:45:11;;;;;;;12.55;9.55;;;;;;;3.62;66.97;99962.98;1666147;86;21471;-69
2022/02/03 10:58:51;;;;;;;11.45;9.48;;;;;;;3.41;65.66;99968.23;1668568;85;21030;-69
2022/02/03 11:11:42;;;;;;;12.37;9.05;;;;;;;3.36;65.34;99976.56;1717547;82;21011;-68
2022/02/03 11:14:07;;;;;;;12.80;9.48;;;;;;;3.32;65.26;99974.85;1717604;82;21109;-68
2022/02/03 11:16:40;;;;;;;11.80;9.15;;;;;;;3.31;65.26;99981.69;1682814;83;21318;-68
2022/02/03 11:19:12;;;;;;;12.40;9.38;;;;;;;3.24;65.12;100013.45;1717514;82;21127;-69
2022/02/03 11:21:37;;;;;;;13.08;9.65;;;;;;;3.16;65.03;99996.09;1717469;82;21178;-69
2022/02/03 11:24:15;;;;;;;13.68;9.73;;;;;;;3.07;64.79;99997.93;1717321;82;21078;-68
2022/02/03 11:37:33;;;;;;;16.52;10.88;;;;;;;2.95;64.75;99995.21;1717463;83;20964;-68
2022/02/03 11:40:22;;;;;;;16.12;11.33;;;;;;;2.94;64.72;100002.32;1713984;82;21027;-68
2022/02/03 11:43:19;;;;;;;13.45;10.30;;;;;;;2.94;64.75;100006.80;1691343;83;21011;-68
2022/02/03 11:45:41;;;;;;;12.82;9.90;;;;;;;2.92;64.77;100010.95;1698535;83;21046;-70
2022/02/03 11:59:39;;;;;;;15.58;10.40;;;;;;;2.74;64.74;100013.09;1712773;83;20988;-68
2022/02/03 12:01:45;;;;;;;11.97;8.95;;;;;;;2.72;64.46;100022.23;1693198;83;21576;-68
2022/02/03 12:15:39;;;;;;;14.63;9.18;;;;;;;2.59;64.42;100040.30;1668701;86;21226;-68
2022/02/03 12:20:59;;;;;;;12.07;9.15;;;;;;;2.54;64.94;100052.03;1668830;86;21038;-68
2022/02/03 12:23:52;;;;;;;12.90;9.75;;;;;;;2.49;65.23;100043.43;1690799;83;21034;-69
2022/02/03 12:26:14;;;;;;;12.55;9.80;;;;;;;2.46;65.78;100068.91;1665972;85;21074;-68
2022/02/03 12:28:50;;;;;;;14.80;9.70;;;;;;;2.42;66.26;100067.73;1668327;85;21107;-68
2022/02/03 12:39:03;;;;;;;14.23;9.78;;;;;;;2.35;67.40;100082.27;1668627;86;20988;-68
2022/02/03 12:44:14;;;;;;;17.98;10.98;;;;;;;2.31;67.79;100093.47;1640954;85;21054;-70
2022/02/03 12:46:37;;;;;;;;;;;;;;;2.29;67.92;100103.41;1670661;85;21033;-70
2022/02/03 12:49:04;;;;;;;15.78;9.73;;;;;;;2.28;67.99;100105.75;1665547;86;20801;-70
2022/02/03 12:51:30;;;;;;;15.30;10.40;;;;;;;2.26;68.11;100102.00;1668655;84;21458;-70
2022/02/03 12:54:00;;;;;;;15.13;10.90;;;;;;;2.24;68.19;100112.48;1668561;84;22031;-68
2022/02/03 12:56:29;;;;;;;15.72;11.10;;;;;;;2.26;68.18;100117.01;1664260;84;21114;-69
2022/02/03 12:59:00;;;;;;;15.55;11.15;;;;;;;2.28;68.12;100111.02;1676866;84;21031;-68
2022/02/03 13:01:34;;;;;;;15.88;11.50;;;;;;;2.31;68.08;100102.18;1666230;85;21351;-70
2022/02/03 13:03:56;;;;;;;16.40;11.20;;;;;;;2.37;67.97;100113.70;1648647;86;21086;-69
2022/02/03 13:06:26;;;;;;;18.12;11.63;;;;;;;2.40;67.86;100104.54;1702642;83;21148;-69
2022/02/03 13:08:57;;;;;;;17.48;12.13;;;;;;;2.40;67.59;100110.61;1702424;83;21045;-69
2022/02/03 13:11:40;;;;;;;16.02;11.22;;;;;;;2.40;67.43;100121.67;1702591;82;21102;-69
2022/02/03 13:14:38;;;;;;;15.25;10.58;;;;;;;2.38;67.08;100108.72;1701890;82;21552;-70
2022/02/03 13:17:16;;;;;;;13.70;9.90;;;;;;;2.37;66.48;100125.56;1700778;83;21078;-69
2022/02/03 13:19:50;;;;;;;13.75;10.15;;;;;;;2.31;65.96;100123.78;1668514;85;22169;-70
2022/02/03 13:22:17;;;;;;;14.35;10.58;;;;;;;2.26;65.73;100124.91;1669774;84;21521;-70
2022/02/03 13:25:01;;;;;;;15.45;10.85;;;;;;;2.23;65.60;100133.23;1657623;85;20999;-70
2022/02/03 13:27:16;;;;;;;17.50;11.80;;;;;;;2.21;65.47;100130.03;1651630;87;21079;-70
2022/02/03 13:29:56;;;;;;;16.35;10.65;;;;;;;2.18;65.28;100133.89;1680515;84;20955;-70
2022/02/03 13:32:14;;;;;;;15.45;11.28;;;;;;;2.20;65.09;100135.78;1676394;85;21145;-70
2022/02/03 13:34:50;;;;;;;14.00;9.83;;;;;;;2.19;64.77;100134.69;1651340;86;20983;-69
2022/02/03 13:37:19;;;;;;;16.37;10.75;;;;;;;2.17;64.41;100130.12;1657309;85;21077;-69
2022/02/03 13:39:48;;;;;;;17.75;11.53;;;;;;;2.16;64.12;100144.33;1657969;85;21617;-68
2022/02/03 13:42:16;;;;;;;15.23;10.88;;;;;;;2.16;63.92;100134.59;1717479;82;21050;-68
2022/02/03 13:44:43;;;;;;;16.50;11.88;;;;;;;2.19;64.00;100141.28;1717555;82;22007;-69
2022/02/03 13:47:24;;;;;;;18.05;11.60;;;;;;;2.21;64.07;100141.38;1705677;83;21198;-69
2022/02/03 13:50:31;;;;;;;15.50;11.38;;;;;;;2.22;64.02;100142.97;1702632;84;22442;-69
2022/02/03 13:53:08;;;;;;;15.95;11.50;;;;;;;2.20;63.99;100142.37;1702359;84;21046;-68
2022/02/03 14:16:34;;;;;;;17.55;11.22;;;;;;;2.04;62.93;100188.48;1717476;82;21521;-69
2022/02/03 14:21:41;;;;;;;15.58;10.98;;;;;;;1.97;62.74;100192.95;1717718;82;20963;-69
2022/02/03 14:27:17;;;;;;;16.67;11.20;;;;;;;1.88;62.59;100206.07;1632615;82;21009;-69
2022/02/03 14:29:40;;;;;;;17.30;11.25;;;;;;;1.84;62.63;100206.16;1712833;82;20994;-69
2022/02/03 14:32:05;;;;;;;16.15;10.70;;;;;;;1.82;62.59;100210.84;1716719;83;21113;-71
2022/02/03 14:34:34;;;;;;;16.20;10.85;;;;;;;1.79;62.42;100216.53;1715190;82;21078;-69
2022/02/03 14:37:26;;;;;;;15.78;10.48;;;;;;;1.73;62.26;100226.56;1717763;83;21090;-68
2022/02/03 14:40:11;;;;;;;14.20;10.25;;;;;;;1.70;62.20;100223.03;1716002;82;21812;-68
2022/02/03 14:42:24;;;;;;;14.78;9.93;;;;;;;1.67;62.23;100228.70;1713961;82;21007;-69
2022/02/03 14:44:52;;;;;;;14.70;10.10;;;;;;;1.67;62.25;100227.39;1711504;82;21071;-67
2022/02/03 14:47:22;;;;;;;15.00;10.08;;;;;;;1.66;62.30;100240.26;1702539;84;21512;-69
2022/02/03 14:49:49;;;;;;;13.62;9.58;;;;;;;1.65;62.22;100249.98;1702559;84;20968;-67
2022/02/03 14:52:32;;;;;;;15.72;10.72;;;;;;;1.61;61.85;100248.27;1702368;84;21511;-68
2022/02/03 15:00:25;;;;;;;12.82;9.33;;;;;;;1.56;61.52;100260.42;1702989;84;21507;-69
2022/02/03 15:02:52;;;;;;;14.05;9.30;;;;;;;1.57;61.16;100260.20;1702521;84;21158;-68
2022/02/03 15:05:26;;;;;;;12.70;8.68;;;;;;;1.54;60.88;100273.77;1702849;82;21519;-68
2022/02/03 15:07:48;;;;;;;11.57;7.75;;;;;;;1.50;60.52;100285.73;1701920;84;21063;-67
2022/02/03 15:10:29;;;;;;;11.95;7.85;;;;;;;1.47;60.00;100297.98;1702618;82;20972;-68
2022/02/03 15:12:59;;;;;;;11.65;7.62;;;;;;;1.42;59.84;100270.67;1701809;84;21046;-68
2022/02/03 15:15:12;;;;;;;11.60;7.28;;;;;;;1.38;59.65;100281.61;1702178;84;21067;-67
2022/02/03 15:17:40;;;;;;;10.15;6.62;;;;;;;1.36;59.56;100290.71;1702370;84;21075;-68
2022/02/03 15:20:08;;;;;;;11.12;7.33;;;;;;;1.34;59.71;100278.25;1702649;82;21036;-69
2022/02/03 15:22:35;;;;;;;10.70;7.17;;;;;;;1.32;59.74;100279.78;1702549;84;21028;-68
2022/02/03 15:25:02;;;;;;;10.80;7.33;;;;;;;1.31;59.73;100291.81;1714468;82;21042;-69
2022/02/03 15:27:30;;;;;;;9.75;6.90;;;;;;;1.30;59.89;100287.57;1717583;82;20980;-68
2022/02/03 15:30:01;;;;;;;11.22;7.70;;;;;;;1.31;60.05;100286.04;1718071;82;21130;-69
2022/02/03 15:32:25;;;;;;;11.53;7.47;;;;;;;1.31;60.20;100290.49;1717688;82;21058;-68
2022/02/03 15:34:54;;;;;;;13.53;8.58;;;;;;;1.32;60.39;100294.25;1680813;84;21090;-67
2022/02/03 15:37:21;;;;;;;15.10;9.65;;;;;;;1.32;60.55;100305.30;1665821;84;20979;-69
2022/02/03 15:39:50;;;;;;;17.42;10.93;;;;;;;1.29;60.81;100309.13;1669467;84;21434;-68
2022/02/03 15:42:22;;;;;;;16.37;10.58;;;;;;;1.29;61.05;100305.69;1668910;84;21042;-68
2022/02/03 15:44:51;;;;;;;17.75;11.85;;;;;;;1.30;61.32;100316.52;1681033;85;21422;-68
2022/02/03 15:47:26;;;;;;;20.65;11.48;;;;;;;1.31;61.43;100322.06;1682990;84;21064;-67
2022/02/03 16:03:15;;;;;;;17.65;11.80;;;;;;;1.20;62.06;100340.59;1680454;85;21048;-67
2022/02/03 16:19:11;;;;;;;15.25;10.45;;;;;;;1.01;62.52;100372.41;1680614;85;20960;-67
2022/02/03 16:21:51;;;;;;;16.73;10.53;;;;;;;0.96;62.50;100373.53;1680872;85;22111;-67
2022/02/03 16:24:25;;;;;;;17.10;10.35;;;;;;;0.92;62.57;100373.11;1680339;85;21809;-67
2022/02/03 16:31:59;;;;;;;13.30;8.85;;;;;;;0.85;62.45;100370.94;1681047;85;21027;-67
2022/02/03 16:53:47;;;;;;;11.15;6.90;;;;;;;0.56;60.41;100436.94;1668436;84;21051;-67
2022/02/03 16:56:14;;;;;;;10.95;6.65;;;;;;;0.53;60.36;100431.59;1668880;84;20989;-67
2022/02/03 16:58:44;;;;;;;10.58;6.60;;;;;;;0.50;60.23;100444.31;1668582;84;20984;-67
2022/02/03 17:01:10;;;;;;;9.90;6.30;;;;;;;0.45;60.07;100437.80;1668819;84;21034;-67
2022/02/03 17:03:36;;;;;;;9.65;6.00;;;;;;;0.40;59.98;100440.72;1668448;84;21013;-68
2022/02/03 17:06:05;;;;;;;10.03;6.60;;;;;;;0.39;60.01;100446.95;1668776;84;21590;-67
2022/02/03 17:08:32;;;;;;;11.05;7.40;;;;;;;0.36;60.03;100448.65;1642024;84;21091;-67
2022/02/03 17:10:59;;;;;;;10.40;6.75;;;;;;;0.35;60.21;100448.34;1669052;84;20976;-68
2022/02/03 17:13:25;;;;;;;9.78;6.45;;;;;;;0.36;60.27;100453.42;1668397;84;21133;-69
2022/02/03 17:15:52;;;;;;;10.38;6.28;;;;;;;0.32;60.06;100457.92;1668801;84;21099;-68
2022/02/03 17:18:18;;;;;;;9.93;5.67;;;;;;;0.31;60.01;100461.56;1680352;85;21629;-68
2022/02/03 17:20:46;;;;;;;10.80;6.28;;;;;;;0.28;59.78;100471.14;1685313;83;21116;-67
2022/02/03 17:23:17;;;;;;;10.30;6.25;;;;;;;0.25;59.58;100460.51;1680808;83;21054;-67
2022/02/03 17:25:49;;;;;;;8.73;5.90;;;;;;;0.22;59.66;100468.27;1680370;85;21104;-67
2022/02/03 17:28:26;;;;;;;8.15;4.97;;;;;;;0.18;59.21;100474.91;1680211;85;20948;-67
2022/02/03 17:30:48;;;;;;;9.05;5.30;;;;;;;0.13;58.59;100468.59;1677589;85;21553;-68
2022/02/03 18:03:46;;;;;;;10.32;6.15;;;;;;;-0.34;57.79;100462.14;1668759;84;21019;-68
2022/02/03 18:08:59;;;;;;;11.12;6.90;;;;;;;-0.36;57.51;100470.69;1668597;86;21114;-68
2022/02/03 18:28:42;;;;;;;6.92;4.50;;;;;;;-0.29;56.35;100488.66;1666139;85;21036;-67
2022/02/03 18:30:11;;;;;;;8.13;4.53;;;;;;;-0.32;55.67;100474.59;1665875;86;21023;-68
2022/02/03 18:32:51;;;;;;;7.97;4.37;;;;;;;-0.35;55.40;100494.64;1665678;86;21178;-68
2022/02/03 18:35:57;;;;;;;8.20;4.95;;;;;;;-0.34;55.17;100486.57;1665818;86;21646;-68
2022/02/03 18:51:34;;;;;;;8.20;4.95;;;;;;;-0.33;55.16;100482.97;1697468;82;21641;-69
2022/02/03 18:54:04;;;;;;;10.00;5.45;;;;;;;-0.33;55.20;100496.09;1712434;81;21627;-68
2022/02/03 18:56:40;;;;;;;8.85;5.60;;;;;;;-0.32;55.31;100480.65;1661224;84;21047;-67
2022/02/03 18:59:24;;;;;;;8.78;5.65;;;;;;;-0.30;55.39;100477.31;1674872;84;21136;-68
2022/02/03 19:02:01;;;;;;;9.98;6.00;;;;;;;-0.29;55.50;100476.84;1676951;84;21165;-69
2022/02/03 19:10:30;;;;;;;9.75;5.85;;;;;;;-0.20;55.62;100505.88;1666504;85;22214;-70
2022/02/03 19:28:25;;;;;;;11.78;6.67;;;;;;;-0.08;55.50;100497.02;1719539;82;21038;-68
2022/02/03 20:08:40;;;;;;;6.70;4.10;;;;;;;-0.25;53.37;100496.45;1538928;85;21115;-68
2022/02/03 20:11:00;;;;;;;8.88;4.83;;;;;;;-0.27;53.34;100497.94;1663156;84;21069;-69
2022/02/03 20:13:27;;;;;;;8.10;4.87;;;;;;;-0.29;53.40;100492.09;1701900;82;21054;-69
2022/02/03 20:15:53;;;;;;;8.35;4.28;;;;;;;-0.30;53.32;100508.00;1711018;82;21535;-68
2022/02/03 20:18:21;;;;;;;8.18;5.15;;;;;;;-0.30;53.42;100492.25;1700394;82;21563;-68
2022/02/03 20:20:48;;;;;;;9.28;5.50;;;;;;;-0.29;53.46;100493.90;1711513;82;20942;-68
2022/02/03 20:23:17;;;;;;;9.20;5.12;;;;;;;-0.31;53.66;100492.76;1702990;82;21061;-69
2022/02/03 20:25:51;;;;;;;8.33;4.85;;;;;;;-0.29;53.77;100491.27;1701078;82;21049;-69
2022/02/03 20:28:14;;;;;;;;;;;;;;;-0.28;53.62;100487.14;1702541;82;21031;-69
2022/02/03 20:30:41;;;;;;;8.35;4.97;;;;;;;-0.30;53.50;100482.56;1660131;84;21182;-69
2022/02/03 20:33:07;;;;;;;7.72;4.85;;;;;;;-0.32;53.52;100476.71;1685950;83;21141;-68
2022/02/03 20:35:35;;;;;;;7.67;4.95;;;;;;;-0.33;53.46;100480.34;1672011;84;21121;-67
2022/02/03 20:38:03;;;;;;;8.95;4.65;;;;;;;-0.35;53.06;100478.39;1670595;84;21070;-68
2022/02/03 20:40:31;;;;;;;8.50;4.78;;;;;;;-0.35;52.99;100481.02;1666376;85;21621;-68
2022/02/03 20:42:57;;;;;;;8.15;4.47;;;;;;;-0.37;52.77;100484.31;1672146;84;21517;-69
2022/02/03 20:45:24;;;;;;;7.83;4.58;;;;;;;-0.42;52.64;100473.59;1671903;84;21058;-68
2022/02/03 20:47:52;;;;;;;7.83;4.42;;;;;;;-0.42;52.64;100476.72;1677931;84;32706;-69
2022/02/03 20:50:20;;;;;;;8.15;4.58;;;;;;;-0.45;52.77;100480.52;1675852;84;21110;-69
2022/02/03 20:52:47;;;;;;;8.50;4.20;;;;;;;-0.46;52.79;100480.21;1676002;84;21383;-69
2022/02/03 20:55:14;;;;;;;6.92;3.70;;;;;;;-0.46;52.82;100486.77;1665928;84;21142;-68
2022/02/03 20:57:40;;;;;;;7.20;4.62;;;;;;;-0.47;52.83;100474.63;1700133;83;21176;-68
2022/02/03 21:02:48;;;;;;;6.92;3.98;;;;;;;-0.47;53.05;100473.32;1665988;84;21145;-69
2022/02/03 21:05:13;;;;;;;8.83;4.65;;;;;;;-0.47;53.02;100481.19;1680511;84;21009;-69
2022/02/03 21:07:41;;;;;;;8.83;4.80;;;;;;;-0.51;53.08;100479.95;1681059;84;21116;-68
2022/02/03 21:10:11;;;;;;;11.88;6.35;;;;;;;-0.50;53.15;100488.12;1706168;82;21047;-67
2022/02/03 21:12:37;;;;;;;8.15;4.65;;;;;;;-0.52;53.24;100483.58;1683837;84;21114;-68
2022/02/03 21:15:06;;;;;;;7.60;4.37;;;;;;;-0.54;53.14;100498.68;1707587;83;21147;-68
2022/02/03 21:17:34;;;;;;;9.08;4.78;;;;;;;-0.56;53.14;100491.01;1719684;82;21045;-68
2022/02/03 21:20:09;;;;;;;9.85;5.70;;;;;;;-0.56;53.26;100494.11;1720855;81;21068;-68
2022/02/03 21:22:38;;;;;;;11.35;6.12;;;;;;;-0.56;53.21;100490.17;1687781;84;21547;-68
2022/02/03 21:25:15;;;;;;;9.60;5.25;;;;;;;-0.55;53.17;100497.06;1700027;82;21108;-69
2022/02/03 21:27:36;;;;;;;8.85;5.10;;;;;;;-0.53;52.80;100493.73;1699472;84;21102;-67
2022/02/03 21:30:06;;;;;;;7.87;4.67;;;;;;;-0.57;52.72;100498.55;1716195;81;21055;-68